sensor_id;sensor_type;location;lat;lon;timestamp;pressure;altitude;pressure_sealevel;temperature;humidity
11808;BME280;5961;42.640;23.380;2023-01-29T00:00:20;94048.00;;;0.27;100.00
11808;BME280;5961;42.640;23.380;2023-01-29T00:02:47;94057.66;;;0.26;100.00
11808;BME280;5961;42.640;23.380;2023-01-29T00:05:15;94031.06;;;0.04;100.00
11808;BME280;5961;42.640;23.380;2023-01-29T00:07:42;94070.97;;;0.30;100.00
11808;BME280;5961;42.640;23.380;2023-01-29T00:10:10;94016.69;;;0.07;100.00
11808;BME280;5961;42.640;23.380;2023-01-29T00:12:37;94057.41;;;0.23;100.00
11808;BME280;5961;42.640;23.380;2023-01-29T00:15:04;94074.38;;;0.25;100.00
11808;BME280;5961;42.640;23.380;2023-01-29T00:17:31;94086.38;;;0.31;100.00
11808;BME280;5961;42.640;23.380;2023-01-29T00:19:58;94065.47;;;0.31;100.00
11808;BME280;5961;42.640;23.380;2023-01-29T00:22:26;94087.13;;;0.37;100.00
11808;BME280;5961;42.640;23.380;2023-01-29T00:24:53;94081.13;;;0.41;100.00
11808;BME280;5961;42.640;23.380;2023-01-29T00:27:19;94097.81;;;0.45;100.00
11808;BME280;5961;42.640;23.380;2023-01-29T00:29:46;94084.28;;;0.38;100.00
11808;BME280;5961;42.640;23.380;2023-01-29T00:32:33;94068.13;;;0.16;100.00
11808;BME280;5961;42.640;23.380;2023-01-29T00:35:00;94086.13;;;0.28;100.00
11808;BME280;5961;42.640;23.380;2023-01-29T00:37:28;94090.03;;;0.35;100.00
11808;BME280;5961;42.640;23.380;2023-01-29T00:39:55;94105.19;;;0.33;100.00
11808;BME280;5961;42.640;23.380;2023-01-29T00:42:22;94092.38;;;0.37;100.00
11808;BME280;5961;42.640;23.380;2023-01-29T00:45:06;94097.84;;;0.40;100.00
11808;BME280;5961;42.640;23.380;2023-01-29T00:47:33;94082.69;;;0.37;100.00
11808;BME280;5961;42.640;23.380;2023-01-29T00:50:01;94091.56;;;0.36;100.00
11808;BME280;5961;42.640;23.380;2023-01-29T00:52:29;94090.78;;;0.41;100.00
11808;BME280;5961;42.640;23.380;2023-01-29T00:54:57;94063.41;;;0.23;100.00
11808;BME280;5961;42.640;23.380;2023-01-29T00:57:26;94088.44;;;0.39;100.00
11808;BME280;5961;42.640;23.380;2023-01-29T00:59:53;94088.97;;;0.41;100.00
11808;BME280;5961;42.640;23.380;2023-01-29T01:02:20;94076.44;;;0.38;100.00
11808;BME280;5961;42.640;23.380;2023-01-29T01:05:05;94063.41;;;0.23;100.00
11808;BME280;5961;42.640;23.380;2023-01-29T01:07:35;94100.47;;;0.40;100.00
11808;BME280;5961;42.640;23.380;2023-01-29T01:10:02;94104.13;;;0.39;100.00
11808;BME280;5961;42.640;23.380;2023-01-29T01:12:47;94074.63;;;0.29;100.00
11808;BME280;5961;42.640;23.380;2023-01-29T01:15:15;94095.75;;;0.37;100.00
11808;BME280;5961;42.640;23.380;2023-01-29T01:17:42;94073.59;;;0.30;100.00
11808;BME280;5961;42.640;23.380;2023-01-29T01:20:11;94084.81;;;0.30;100.00
11808;BME280;5961;42.640;23.380;2023-01-29T01:22:39;94084.81;;;0.30;100.00
11808;BME280;5961;42.640;23.380;2023-01-29T01:25:07;94078.50;;;0.36;100.00
11808;BME280;5961;42.640;23.380;2023-01-29T01:27:34;94091.06;;;0.34;100.00
11808;BME280;5961;42.640;23.380;2023-01-29T01:30:09;94085.31;;;0.37;100.00
11808;BME280;5961;42.640;23.380;2023-01-29T01:32:35;94070.16;;;0.34;100.00
11808;BME280;5961;42.640;23.380;2023-01-29T01:35:02;94077.97;;;0.39;100.00
11808;BME280;5961;42.640;23.380;2023-01-29T01:37:29;94074.59;;;0.39;100.00
11808;BME280;5961;42.640;23.380;2023-01-29T01:39:58;94085.81;;;0.44;100.00
11808;BME280;5961;42.640;23.380;2023-01-29T01:42:27;94036.81;;;0.11;100.00
11808;BME280;5961;42.640;23.380;2023-01-29T01:44:57;94072.78;;;0.34;100.00
11808;BME280;5961;42.640;23.380;2023-01-29T01:47:33;94088.97;;;0.41;100.00
11808;BME280;5961;42.640;23.380;2023-01-29T01:50:06;94085.56;;;0.41;100.00
11808;BME280;5961;42.640;23.380;2023-01-29T01:52:36;94079.03;;;0.33;100.00
11808;BME280;5961;42.640;23.380;2023-01-29T01:55:08;94097.88;;;0.35;100.00
11808;BME280;5961;42.640;23.380;2023-01-29T01:57:37;94085.88;;;0.24;100.00
11808;BME280;5961;42.640;23.380;2023-01-29T02:00:07;94108.88;;;0.32;100.00
11808;BME280;5961;42.640;23.380;2023-01-29T02:02:37;94102.88;;;0.27;100.00
11808;BME280;5961;42.640;23.380;2023-01-29T02:05:22;94112.50;;;0.31;100.00
11808;BME280;5961;42.640;23.380;2023-01-29T02:08:07;94102.59;;;0.28;100.00
11808;BME280;5961;42.640;23.380;2023-01-29T02:10:52;94095.25;;;0.30;100.00
11808;BME280;5961;42.640;23.380;2023-01-29T02:13:20;94099.44;;;0.31;100.00
11808;BME280;5961;42.640;23.380;2023-01-29T02:15:47;94092.94;;;0.29;100.00
11808;BME280;5961;42.640;23.380;2023-01-29T02:18:15;94097.13;;;0.30;100.00
11808;BME280;5961;42.640;23.380;2023-01-29T02:20:46;94097.91;;;0.25;100.00
11808;BME280;5961;42.640;23.380;2023-01-29T02:26:17;94110.72;;;0.22;100.00
11808;BME280;5961;42.640;23.380;2023-01-29T02:28:53;94111.47;;;0.27;100.00
11808;BME280;5961;42.640;23.380;2023-01-29T02:31:46;94119.06;;;0.19;100.00
11808;BME280;5961;42.640;23.380;2023-01-29T02:34:21;94126.13;;;0.23;100.00
11808;BME280;5961;42.640;23.380;2023-01-29T02:36:57;94121.16;;;0.22;100.00
11808;BME280;5961;42.640;23.380;2023-01-29T02:39:32;94121.44;;;0.20;100.00
11808;BME280;5961;42.640;23.380;2023-01-29T02:42:06;94111.50;;;0.22;100.00
11808;BME280;5961;42.640;23.380;2023-01-29T02:44:40;94124.56;;;0.22;100.00
11808;BME280;5961;42.640;23.380;2023-01-29T02:47:13;94119.59;;;0.26;100.00
11808;BME280;5961;42.640;23.380;2023-01-29T02:49:46;94132.16;;;0.19;100.00
11808;BME280;5961;42.640;23.380;2023-01-29T02:52:16;94123.50;;;0.18;100.00
11808;BME280;5961;42.640;23.380;2023-01-29T02:54:49;94133.44;;;0.21;100.00
11808;BME280;5961;42.640;23.380;2023-01-29T02:57:21;94132.94;;;0.19;100.00
11808;BME280;5961;42.640;23.380;2023-01-29T02:59:53;94136.34;;;0.10;100.00
11808;BME280;5961;42.640;23.380;2023-01-29T03:02:28;94137.38;;;0.19;100.00
11808;BME280;5961;42.640;23.380;2023-01-29T03:04:59;94110.22;;;0.10;100.00
11808;BME280;5961;42.640;23.380;2023-01-29T03:07:32;94126.41;;;0.17;100.00
11808;BME280;5961;42.640;23.380;2023-01-29T03:10:13;94115.19;;;0.11;100.00
11808;BME280;5961;42.640;23.380;2023-01-29T03:12:43;94122.25;;;0.11;100.00
11808;BME280;5961;42.640;23.380;2023-01-29T03:15:16;94141.56;;;0.10;100.00
11808;BME280;5961;42.640;23.380;2023-01-29T03:17:47;94135.06;;;0.02;100.00
11808;BME280;5961;42.640;23.380;2023-01-29T03:20:19;94111.31;;;-0.17;100.00
11808;BME280;5961;42.640;23.380;2023-01-29T03:22:53;94120.69;;;0.05;100.00
11808;BME280;5961;42.640;23.380;2023-01-29T03:25:23;94132.16;;;0.14;100.00
11808;BME280;5961;42.640;23.380;2023-01-29T03:28:12;94133.47;;;0.11;100.00
11808;BME280;5961;42.640;23.380;2023-01-29T03:31:03;94131.66;;;0.07;100.00
11808;BME280;5961;42.640;23.380;2023-01-29T03:33:50;94146.78;;;0.10;100.00
11808;BME280;5961;42.640;23.380;2023-01-29T03:36:20;94137.91;;;0.16;100.00
11808;BME280;5961;42.640;23.380;2023-01-29T03:38:48;94141.31;;;0.16;100.00
11808;BME280;5961;42.640;23.380;2023-01-29T03:41:21;94161.94;;;0.13;100.00
11808;BME280;5961;42.640;23.380;2023-01-29T03:43:55;94146.78;;;0.10;100.00
11808;BME280;5961;42.640;23.380;2023-01-29T03:46:30;94136.88;;;0.17;100.00
11808;BME280;5961;42.640;23.380;2023-01-29T03:49:06;94128.75;;;0.18;100.00
11808;BME280;5961;42.640;23.380;2023-01-29T03:51:39;94126.94;;;0.14;100.00
11808;BME280;5961;42.640;23.380;2023-01-29T03:54:14;94133.47;;;0.16;100.00
11808;BME280;5961;42.640;23.380;2023-01-29T03:56:53;94137.91;;;0.21;100.00
11808;BME280;5961;42.640;23.380;2023-01-29T03:59:32;94131.34;;;0.18;100.00
11808;BME280;5961;42.640;23.380;2023-01-29T04:02:04;94142.88;;;0.17;100.00
11808;BME280;5961;42.640;23.380;2023-01-29T04:04:33;94148.38;;;0.21;100.00
11808;BME280;5961;42.640;23.380;2023-01-29T04:07:05;94127.19;;;0.17;100.00
11808;BME280;5961;42.640;23.380;2023-01-29T04:09:39;94161.94;;;0.23;100.00
11808;BME280;5961;42.640;23.380;2023-01-29T04:12:10;94144.94;;;0.25;100.00
11808;BME280;5961;42.640;23.380;2023-01-29T04:14:38;94137.59;;;0.27;100.00
11808;BME280;5961;42.640;23.380;2023-01-29T04:17:11;94131.34;;;0.18;100.00
11808;BME280;5961;42.640;23.380;2023-01-29T04:19:41;94143.88;;;0.31;100.00
11808;BME280;5961;42.640;23.380;2023-01-29T04:22:11;94145.97;;;0.24;100.00
11808;BME280;5961;42.640;23.380;2023-01-29T04:24:39;94132.69;;;0.11;100.00
11808;BME280;5961;42.640;23.380;2023-01-29T04:27:22;94143.91;;;0.26;100.00
11808;BME280;5961;42.640;23.380;2023-01-29T04:32:56;94145.97;;;0.29;100.00
11808;BME280;5961;42.640;23.380;2023-01-29T04:35:30;94128.75;;;0.13;100.00
11808;BME280;5961;42.640;23.380;2023-01-29T04:38:06;94150.16;;;0.25;100.00
11808;BME280;5961;42.640;23.380;2023-01-29T04:40:42;94134.22;;;0.22;100.00
11808;BME280;5961;42.640;23.380;2023-01-29T04:43:14;94141.81;;;0.23;100.00
11808;BME280;5961;42.640;23.380;2023-01-29T04:45:49;94153.34;;;0.17;100.00
11808;BME280;5961;42.640;23.380;2023-01-29T04:48:25;94147.06;;;0.13;100.00
11808;BME280;5961;42.640;23.380;2023-01-29T04:50:58;94155.41;;;0.20;100.00
11808;BME280;5961;42.640;23.380;2023-01-29T04:53:35;94147.31;;;0.17;100.00
11808;BME280;5961;42.640;23.380;2023-01-29T04:56:08;94156.47;;;0.14;100.00
11808;BME280;5961;42.640;23.380;2023-01-29T04:58:38;94158.53;;;0.22;100.00
11808;BME280;5961;42.640;23.380;2023-01-29T05:01:10;94156.22;;;0.21;100.00
11808;BME280;5961;42.640;23.380;2023-01-29T05:03:42;94152.25;;;0.18;100.00
11808;BME280;5961;42.640;23.380;2023-01-29T05:06:10;94170.56;;;0.18;100.00
11808;BME280;5961;42.640;23.380;2023-01-29T05:08:38;94162.75;;;0.13;100.00
11808;BME280;5961;42.640;23.380;2023-01-29T05:11:07;94155.16;;;0.17;100.00
11808;BME280;5961;42.640;23.380;2023-01-29T05:13:37;94140.78;;;0.14;100.00
11808;BME280;5961;42.640;23.380;2023-01-29T05:16:09;94166.13;;;0.24;100.00
11808;BME280;5961;42.640;23.380;2023-01-29T05:18:40;94158.28;;;0.24;100.00
11808;BME280;5961;42.640;23.380;2023-01-29T05:21:08;94144.72;;;0.07;100.00
11808;BME280;5961;42.640;23.380;2023-01-29T05:23:35;94180.25;;;0.18;100.00
11808;BME280;5961;42.640;23.380;2023-01-29T05:26:02;94156.19;;;0.16;100.00
11808;BME280;5961;42.640;23.380;2023-01-29T05:28:29;94155.16;;;0.12;100.00
11808;BME280;5961;42.640;23.380;2023-01-29T05:30:55;94172.66;;;0.16;100.00
11808;BME280;5961;42.640;23.380;2023-01-29T05:33:23;94185.19;;;0.19;100.00
11808;BME280;5961;42.640;23.380;2023-01-29T05:35:52;94185.19;;;0.24;100.00
11808;BME280;5961;42.640;23.380;2023-01-29T05:38:20;94185.47;;;0.23;100.00
11808;BME280;5961;42.640;23.380;2023-01-29T05:40:47;94179.97;;;0.19;100.00
11808;BME280;5961;42.640;23.380;2023-01-29T05:43:16;94187.28;;;0.27;100.00
11808;BME280;5961;42.640;23.380;2023-01-29T05:45:43;94192.00;;;0.25;100.00
11808;BME280;5961;42.640;23.380;2023-01-29T05:48:17;94177.88;;;0.26;100.00
11808;BME280;5961;42.640;23.380;2023-01-29T05:50:44;94187.28;;;0.22;100.00
11808;BME280;5961;42.640;23.380;2023-01-29T05:53:12;94181.00;;;0.18;100.00
11808;BME280;5961;42.640;23.380;2023-01-29T05:55:42;94190.94;;;0.26;100.00
11808;BME280;5961;42.640;23.380;2023-01-29T05:58:09;94207.13;;;0.18;100.00
11808;BME280;5961;42.640;23.380;2023-01-29T06:00:36;94149.97;;;-0.14;100.00
11808;BME280;5961;42.640;23.380;2023-01-29T06:03:02;94192.50;;;0.22;100.00
11808;BME280;5961;42.640;23.380;2023-01-29T06:05:29;94169.00;;;0.07;100.00
11808;BME280;5961;42.640;23.380;2023-01-29T06:07:56;94199.06;;;0.20;100.00
11808;BME280;5961;42.640;23.380;2023-01-29T06:10:24;94203.50;;;0.19;100.00
11808;BME280;5961;42.640;23.380;2023-01-29T06:12:51;94214.22;;;0.23;100.00
11808;BME280;5961;42.640;23.380;2023-01-29T06:15:17;94224.16;;;0.11;100.00
11808;BME280;5961;42.640;23.380;2023-01-29T06:17:45;94192.28;;;-0.12;100.00
11808;BME280;5961;42.640;23.380;2023-01-29T06:20:12;94217.38;;;0.15;100.00
11808;BME280;5961;42.640;23.380;2023-01-29T06:22:38;94191.50;;;-0.02;100.00
11808;BME280;5961;42.640;23.380;2023-01-29T06:25:06;94225.47;;;0.08;100.00
11808;BME280;5961;42.640;23.380;2023-01-29T06:27:35;94206.66;;;-0.09;100.00
11808;BME280;5961;42.640;23.380;2023-01-29T06:30:02;94227.28;;;0.08;100.00
11808;BME280;5961;42.640;23.380;2023-01-29T06:32:28;94179.50;;;-0.13;100.00
11808;BME280;5961;42.640;23.380;2023-01-29T06:34:55;94225.44;;;0.18;100.00
11808;BME280;5961;42.640;23.380;2023-01-29T06:37:22;94241.66;;;0.20;100.00
11808;BME280;5961;42.640;23.380;2023-01-29T06:39:48;94242.69;;;0.19;100.00
11808;BME280;5961;42.640;23.380;2023-01-29T06:42:15;94260.72;;;0.16;100.00
11808;BME280;5961;42.640;23.380;2023-01-29T06:44:43;94250.53;;;0.19;100.00
11808;BME280;5961;42.640;23.380;2023-01-29T06:47:10;94249.47;;;0.15;100.00
11808;BME280;5961;42.640;23.380;2023-01-29T06:49:37;94256.81;;;0.23;100.00
11808;BME280;5961;42.640;23.380;2023-01-29T06:52:04;94237.22;;;0.11;100.00
11808;BME280;5961;42.640;23.380;2023-01-29T06:54:30;94255.50;;;0.26;100.00
11808;BME280;5961;42.640;23.380;2023-01-29T06:56:57;94261.50;;;0.21;100.00
11808;BME280;5961;42.640;23.380;2023-01-29T06:59:24;94265.69;;;0.27;100.00
11808;BME280;5961;42.640;23.380;2023-01-29T07:01:52;94219.69;;;0.06;100.00
11808;BME280;5961;42.640;23.380;2023-01-29T07:04:19;94256.03;;;0.23;100.00
11808;BME280;5961;42.640;23.380;2023-01-29T07:06:45;94250.53;;;0.29;100.00
11808;BME280;5961;42.640;23.380;2023-01-29T07:09:12;94264.13;;;0.41;100.00
11808;BME280;5961;42.640;23.380;2023-01-29T07:11:39;94229.09;;;0.12;100.00
11808;BME280;5961;42.640;23.380;2023-01-29T07:14:06;94265.66;;;0.42;100.00
11808;BME280;5961;42.640;23.380;2023-01-29T07:16:33;94281.38;;;0.37;100.00
11808;BME280;5961;42.640;23.380;2023-01-29T07:19:01;94260.97;;;0.34;100.00
11808;BME280;5961;42.640;23.380;2023-01-29T07:21:28;94273.50;;;0.42;100.00
11808;BME280;5961;42.640;23.380;2023-01-29T07:23:55;94274.56;;;0.41;100.00
11808;BME280;5961;42.640;23.380;2023-01-29T07:26:21;94270.38;;;0.45;100.00
11808;BME280;5961;42.640;23.380;2023-01-29T07:28:48;94270.66;;;0.39;100.00
11808;BME280;5961;42.640;23.380;2023-01-29T07:31:15;94253.41;;;0.28;100.00
11808;BME280;5961;42.640;23.380;2023-01-29T07:33:42;94274.56;;;0.41;100.00
11808;BME280;5961;42.640;23.380;2023-01-29T07:36:11;94258.88;;;0.21;100.00
11808;BME280;5961;42.640;23.380;2023-01-29T07:38:38;94291.81;;;0.42;100.00
11808;BME280;5961;42.640;23.380;2023-01-29T07:41:05;94221.78;;;0.09;100.00
11808;BME280;5961;42.640;23.380;2023-01-29T07:43:32;94281.38;;;0.47;100.00
11808;BME280;5961;42.640;23.380;2023-01-29T07:46:01;94274.81;;;0.40;100.00
11808;BME280;5961;42.640;23.380;2023-01-29T07:48:28;94285.28;;;0.55;100.00
11808;BME280;5961;42.640;23.380;2023-01-29T07:50:55;94281.63;;;0.46;100.00
11808;BME280;5961;42.640;23.380;2023-01-29T07:53:24;94293.41;;;0.53;100.00
11808;BME280;5961;42.640;23.380;2023-01-29T07:55:51;94287.91;;;0.40;100.00
11808;BME280;5961;42.640;23.380;2023-01-29T07:58:18;94301.25;;;0.43;100.00
11808;BME280;5961;42.640;23.380;2023-01-29T08:00:45;94276.69;;;0.29;100.00
11808;BME280;5961;42.640;23.380;2023-01-29T08:03:13;94296.53;;;0.50;100.00
11808;BME280;5961;42.640;23.380;2023-01-29T08:05:41;94291.56;;;0.54;100.00
11808;BME280;5961;42.640;23.380;2023-01-29T08:08:07;94301.22;;;0.59;100.00
11808;BME280;5961;42.640;23.380;2023-01-29T08:10:37;94300.19;;;0.60;100.00
11808;BME280;5961;42.640;23.380;2023-01-29T08:13:05;94299.13;;;0.55;100.00
11808;BME280;5961;42.640;23.380;2023-01-29T08:15:32;94302.28;;;0.63;100.00
11808;BME280;5961;42.640;23.380;2023-01-29T08:17:59;94292.06;;;0.46;100.00
11808;BME280;5961;42.640;23.380;2023-01-29T08:20:26;94311.69;;;0.59;100.00
11808;BME280;5961;42.640;23.380;2023-01-29T08:22:58;94303.06;;;0.63;100.00
11808;BME280;5961;42.640;23.380;2023-01-29T08:25:24;94277.19;;;0.36;100.00
11808;BME280;5961;42.640;23.380;2023-01-29T08:27:52;94291.31;;;0.50;100.00
11808;BME280;5961;42.640;23.380;2023-01-29T08:30:19;94306.97;;;0.61;100.00
11808;BME280;5961;42.640;23.380;2023-01-29T08:32:46;94300.69;;;0.62;100.00
11808;BME280;5961;42.640;23.380;2023-01-29T08:35:13;94303.06;;;0.63;100.00
11808;BME280;5961;42.640;23.380;2023-01-29T08:37:39;94314.28;;;0.74;100.00
11808;BME280;5961;42.640;23.380;2023-01-29T08:40:07;94315.34;;;0.68;100.00
11808;BME280;5961;42.640;23.380;2023-01-29T08:42:36;94309.84;;;0.64;100.00
11808;BME280;5961;42.640;23.380;2023-01-29T08:45:05;94323.16;;;0.73;100.00
11808;BME280;5961;42.640;23.380;2023-01-29T08:47:33;94277.72;;;0.28;100.00
11808;BME280;5961;42.640;23.380;2023-01-29T08:49:59;94327.13;;;0.65;100.00
11808;BME280;5961;42.640;23.380;2023-01-29T08:52:26;94329.72;;;0.70;100.00
11808;BME280;5961;42.640;23.380;2023-01-29T08:54:53;94343.06;;;0.69;100.00
11808;BME280;5961;42.640;23.380;2023-01-29T08:57:20;94342.03;;;0.75;100.00
11808;BME280;5961;42.640;23.380;2023-01-29T08:59:46;94334.69;;;0.72;100.00
11808;BME280;5961;42.640;23.380;2023-01-29T09:02:14;94317.97;;;0.42;100.00
11808;BME280;5961;42.640;23.380;2023-01-29T09:04:41;94347.25;;;0.65;100.00
11808;BME280;5961;42.640;23.380;2023-01-29T09:07:08;94252.63;;;0.02;100.00
11808;BME280;5961;42.640;23.380;2023-01-29T09:09:35;94356.16;;;0.69;100.00
11808;BME280;5961;42.640;23.380;2023-01-29T09:12:02;94343.06;;;0.69;100.00
11808;BME280;5961;42.640;23.380;2023-01-29T09:14:29;94341.50;;;0.68;100.00
11808;BME280;5961;42.640;23.380;2023-01-29T09:16:57;94349.59;;;0.76;100.00
11808;BME280;5961;42.640;23.380;2023-01-29T09:19:25;94345.16;;;0.77;100.00
11808;BME280;5961;42.640;23.380;2023-01-29T09:21:51;94336.78;;;0.70;100.00
11808;BME280;5961;42.640;23.380;2023-01-29T09:24:18;94338.88;;;0.63;100.00
11808;BME280;5961;42.640;23.380;2023-01-29T09:26:48;94323.72;;;0.54;100.00
11808;BME280;5961;42.640;23.380;2023-01-29T09:29:17;94354.84;;;0.66;100.00
11808;BME280;5961;42.640;23.380;2023-01-29T09:31:43;94343.59;;;0.66;100.00
11808;BME280;5961;42.640;23.380;2023-01-29T09:34:10;94330.53;;;0.66;100.00
11808;BME280;5961;42.640;23.380;2023-01-29T09:36:38;94329.47;;;0.57;100.00
11808;BME280;5961;42.640;23.380;2023-01-29T09:39:05;94325.28;;;0.61;100.00
11808;BME280;5961;42.640;23.380;2023-01-29T09:41:42;94289.22;;;0.37;100.00
11808;BME280;5961;42.640;23.380;2023-01-29T09:44:19;94335.22;;;0.59;100.00
11808;BME280;5961;42.640;23.380;2023-01-29T09:46:47;94328.94;;;0.60;100.00
11808;BME280;5961;42.640;23.380;2023-01-29T09:49:23;94328.94;;;0.60;100.00
11808;BME280;5961;42.640;23.380;2023-01-29T09:51:56;94318.75;;;0.68;100.00
11808;BME280;5961;42.640;23.380;2023-01-29T09:54:26;94328.94;;;0.75;100.00
11808;BME280;5961;42.640;23.380;2023-01-29T09:56:55;94325.28;;;0.71;100.00
11808;BME280;5961;42.640;23.380;2023-01-29T09:59:25;94314.81;;;0.81;100.00
11808;BME280;5961;42.640;23.380;2023-01-29T10:02:00;94334.69;;;0.77;100.00
11808;BME280;5961;42.640;23.380;2023-01-29T10:07:45;94311.16;;;0.67;100.00
11808;BME280;5961;42.640;23.380;2023-01-29T10:10:29;94299.66;;;0.68;100.00
11808;BME280;5961;42.640;23.380;2023-01-29T10:13:04;94309.06;;;0.74;100.00
11808;BME280;5961;42.640;23.380;2023-01-29T10:15:49;94306.72;;;0.72;100.00
11808;BME280;5961;42.640;23.380;2023-01-29T10:21:40;94303.84;;;0.53;100.00
11808;BME280;5961;42.640;23.380;2023-01-29T10:24:23;94291.31;;;0.50;100.00
11808;BME280;5961;42.640;23.380;2023-01-29T10:26:52;94297.03;;;0.52;100.00
11808;BME280;5961;42.640;23.380;2023-01-29T10:29:19;94298.88;;;0.52;100.00
11808;BME280;5961;42.640;23.380;2023-01-29T10:31:50;94304.13;;;0.57;100.00
11808;BME280;5961;42.640;23.380;2023-01-29T10:34:23;94306.44;;;0.59;100.00
11808;BME280;5961;42.640;23.380;2023-01-29T10:36:54;94301.50;;;0.52;100.00
11808;BME280;5961;42.640;23.380;2023-01-29T10:39:24;94298.38;;;0.45;100.00
11808;BME280;5961;42.640;23.380;2023-01-29T10:42:03;94290.00;;;0.48;100.00
11808;BME280;5961;42.640;23.380;2023-01-29T10:44:45;94263.59;;;0.24;100.00
11808;BME280;5961;42.640;23.380;2023-01-29T10:47:43;94298.63;;;0.43;100.00
11808;BME280;5961;42.640;23.380;2023-01-29T10:50:19;94288.44;;;0.37;100.00
11808;BME280;5961;42.640;23.380;2023-01-29T10:53:05;94264.63;;;0.33;100.00
11808;BME280;5961;42.640;23.380;2023-01-29T10:55:48;94274.81;;;0.40;100.00
11808;BME280;5961;42.640;23.380;2023-01-29T10:58:24;94288.69;;;0.45;100.00
11808;BME280;5961;42.640;23.380;2023-01-29T11:00:55;94297.56;;;0.49;100.00
11808;BME280;5961;42.640;23.380;2023-01-29T11:03:23;94273.25;;;0.49;100.00
11808;BME280;5961;42.640;23.380;2023-01-29T11:05:55;94275.09;;;0.38;100.00
11808;BME280;5961;42.640;23.380;2023-01-29T11:08:27;94256.81;;;0.23;100.00
11808;BME280;5961;42.640;23.380;2023-01-29T11:11:05;94279.00;;;0.46;100.00
11808;BME280;5961;42.640;23.380;2023-01-29T11:13:37;94280.03;;;0.55;100.00
11808;BME280;5961;42.640;23.380;2023-01-29T11:16:07;94280.81;;;0.55;100.00
11808;BME280;5961;42.640;23.380;2023-01-29T11:18:55;94274.53;;;0.62;100.00
11808;BME280;5961;42.640;23.380;2023-01-29T11:21:23;94274.03;;;0.60;100.00
11808;BME280;5961;42.640;23.380;2023-01-29T11:24:04;94286.34;;;0.54;100.00
11808;BME280;5961;42.640;23.380;2023-01-29T11:26:37;94275.88;;;0.59;100.00
11808;BME280;5961;42.640;23.380;2023-01-29T11:29:04;94275.34;;;0.62;100.00
11808;BME280;5961;42.640;23.380;2023-01-29T11:31:53;94255.72;;;0.60;100.00
11808;BME280;5961;42.640;23.380;2023-01-29T11:34:21;94210.25;;;0.30;100.00
11808;BME280;5961;42.640;23.380;2023-01-29T11:36:56;94249.94;;;0.68;100.00
11808;BME280;5961;42.640;23.380;2023-01-29T11:39:24;94224.34;;;0.49;100.00
11808;BME280;5961;42.640;23.380;2023-01-29T11:41:55;94244.22;;;0.66;100.00
11808;BME280;5961;42.640;23.380;2023-01-29T11:44:28;94248.91;;;0.59;100.00
11808;BME280;5961;42.640;23.380;2023-01-29T11:47:06;94231.91;;;0.71;100.00
11808;BME280;5961;42.640;23.380;2023-01-29T11:49:36;94231.63;;;0.78;100.00
11808;BME280;5961;42.640;23.380;2023-01-29T11:52:06;94223.78;;;0.73;100.00
11808;BME280;5961;42.640;23.380;2023-01-29T11:54:37;94237.34;;;0.90;100.00
11808;BME280;5961;42.640;23.380;2023-01-29T11:57:20;94243.34;;;0.85;100.00
11808;BME280;5961;42.640;23.380;2023-01-29T11:59:49;94234.44;;;0.91;100.00
11808;BME280;5961;42.640;23.380;2023-01-29T12:02:27;94233.16;;;0.89;100.00
11808;BME280;5961;42.640;23.380;2023-01-29T12:04:57;94244.41;;;0.79;100.00
11808;BME280;5961;42.640;23.380;2023-01-29T12:07:26;94235.50;;;0.90;100.00
11808;BME280;5961;42.640;23.380;2023-01-29T12:09:54;94207.56;;;0.81;100.00
11808;BME280;5961;42.640;23.380;2023-01-29T12:12:36;94233.91;;;0.94;100.00
11808;BME280;5961;42.640;23.380;2023-01-29T12:15:16;94204.41;;;0.79;100.00
11808;BME280;5961;42.640;23.380;2023-01-29T12:17:51;94219.81;;;0.85;100.00
11808;BME280;5961;42.640;23.380;2023-01-29T12:20:23;94233.66;;;0.91;100.00
11808;BME280;5961;42.640;23.380;2023-01-29T12:22:56;94232.09;;;0.95;100.00
11808;BME280;5961;42.640;23.380;2023-01-29T12:25:36;94231.56;;;0.98;100.00
11808;BME280;5961;42.640;23.380;2023-01-29T12:28:09;94223.47;;;0.89;100.00
11808;BME280;5961;42.640;23.380;2023-01-29T12:30:45;94246.22;;;0.89;100.00
11808;BME280;5961;42.640;23.380;2023-01-29T12:33:22;94228.97;;;0.93;100.00
11808;BME280;5961;42.640;23.380;2023-01-29T12:35:53;94265.84;;;0.91;100.00
11808;BME280;5961;42.640;23.380;2023-01-29T12:38:24;94238.63;;;0.92;100.00
11808;BME280;5961;42.640;23.380;2023-01-29T12:40:54;94193.50;;;0.51;100.00
11808;BME280;5961;42.640;23.380;2023-01-29T12:43:26;94220.88;;;0.84;100.00
11808;BME280;5961;42.640;23.380;2023-01-29T12:45:56;94237.84;;;0.92;100.00
11808;BME280;5961;42.640;23.380;2023-01-29T12:48:29;94235.75;;;0.94;100.00
11808;BME280;5961;42.640;23.380;2023-01-29T12:51:02;94229.75;;;0.93;100.00
11808;BME280;5961;42.640;23.380;2023-01-29T12:53:34;94224.19;;;1.00;100.00
11808;BME280;5961;42.640;23.380;2023-01-29T12:56:08;94243.59;;;0.99;100.00
11808;BME280;5961;42.640;23.380;2023-01-29T12:58:38;94236.78;;;0.98;100.00
11808;BME280;5961;42.640;23.380;2023-01-29T13:01:12;94237.81;;;1.02;100.00
11808;BME280;5961;42.640;23.380;2023-01-29T13:03:48;94228.91;;;1.03;100.00
11808;BME280;5961;42.640;23.380;2023-01-29T13:06:19;94238.59;;;1.07;100.00
11808;BME280;5961;42.640;23.380;2023-01-29T13:08:50;94245.13;;;1.10;100.00
11808;BME280;5961;42.640;23.380;2023-01-29T13:11:24;94227.88;;;1.04;100.00
11808;BME280;5961;42.640;23.380;2023-01-29T13:13:57;94240.38;;;1.12;100.00
11808;BME280;5961;42.640;23.380;2023-01-29T13:16:27;94222.59;;;1.09;100.00
11808;BME280;5961;42.640;23.380;2023-01-29T13:18:59;94230.22;;;1.05;100.00
11808;BME280;5961;42.640;23.380;2023-01-29T13:21:30;94159.19;;;0.68;100.00
11808;BME280;5961;42.640;23.380;2023-01-29T13:24:02;94224.44;;;1.14;100.00
11808;BME280;5961;42.640;23.380;2023-01-29T13:26:30;94230.97;;;1.11;100.00
11808;BME280;5961;42.640;23.380;2023-01-29T13:28:58;94235.41;;;1.16;100.00
11808;BME280;5961;42.640;23.380;2023-01-29T13:31:31;94241.94;;;1.18;100.00